createdAt,value
2019-03-12T00:00:30.836Z,1.40
2019-03-12T00:03:02.320Z,1.30
2019-03-12T00:05:33.559Z,1.27
2019-03-12T00:08:04.751Z,1.40
2019-03-12T00:10:36.079Z,1.20
2019-03-12T00:13:07.355Z,1.40
2019-03-12T00:15:38.584Z,1.80
2019-03-12T00:18:09.878Z,1.32
2019-03-12T00:20:41.076Z,1.40
2019-03-12T00:23:12.361Z,1.40
2019-03-12T00:25:43.586Z,1.60
2019-03-12T00:28:14.682Z,2.00
2019-03-12T00:30:46.189Z,1.45
2019-03-12T00:33:17.425Z,1.80
2019-03-12T00:35:48.642Z,1.92
2019-03-12T00:38:19.801Z,1.72
2019-03-12T00:40:51.001Z,1.82
2019-03-12T00:43:22.240Z,1.60
2019-03-12T00:45:53.481Z,1.67
2019-03-12T00:48:24.629Z,1.90
2019-03-12T00:50:55.875Z,1.98
2019-03-12T00:53:27.117Z,1.70
2019-03-12T00:55:58.411Z,1.75
2019-03-12T00:58:29.691Z,2.08
2019-03-12T01:01:00.958Z,2.40
2019-03-12T01:03:32.283Z,2.42
2019-03-12T01:06:03.525Z,2.50
2019-03-12T01:08:34.786Z,2.65
2019-03-12T01:11:06.386Z,2.62
2019-03-12T01:13:37.716Z,1.92
2019-03-12T01:16:08.933Z,1.72
2019-03-12T01:18:40.143Z,2.02
2019-03-12T01:21:11.472Z,2.10
2019-03-12T01:23:42.691Z,2.08
2019-03-12T01:26:13.923Z,1.82
2019-03-12T01:28:45.049Z,1.52
2019-03-12T01:31:16.210Z,1.77
2019-03-12T01:33:47.417Z,1.70
2019-03-12T01:36:18.602Z,1.30
2019-03-12T01:38:49.845Z,1.50
2019-03-12T01:41:20.996Z,1.25
2019-03-12T01:43:52.246Z,2.00
2019-03-12T01:46:23.541Z,1.92
2019-03-12T01:48:54.744Z,1.82
2019-03-12T01:51:25.977Z,1.80
2019-03-12T01:53:57.197Z,1.50
2019-03-12T01:56:28.414Z,1.90
2019-03-12T01:58:59.613Z,2.15
2019-03-12T02:01:30.923Z,2.08
2019-03-12T02:04:02.175Z,1.82
2019-03-12T02:06:33.331Z,1.60
2019-03-12T02:09:05.031Z,1.60
2019-03-12T02:11:37.695Z,1.55
2019-03-12T02:14:26.629Z,1.72
2019-03-12T02:16:57.792Z,1.72
2019-03-12T02:19:29.133Z,1.50
2019-03-12T02:22:00.787Z,1.62
2019-03-12T02:24:32.547Z,2.10
2019-03-12T02:27:04.076Z,1.50
2019-03-12T02:29:35.335Z,1.70
2019-03-12T02:32:07.680Z,1.62
2019-03-12T02:34:39.307Z,1.60
2019-03-12T02:37:10.678Z,1.40
2019-03-12T02:39:42.000Z,1.42
2019-03-12T02:42:13.180Z,1.60
2019-03-12T02:44:45.280Z,1.72
2019-03-12T02:47:16.492Z,1.40
2019-03-12T02:49:47.714Z,1.40
2019-03-12T02:52:19.006Z,1.50
2019-03-12T02:54:50.308Z,1.55
2019-03-12T02:57:21.546Z,1.40
2019-03-12T02:59:52.725Z,1.42
2019-03-12T03:02:23.937Z,1.62
2019-03-12T03:04:55.100Z,1.50
2019-03-12T03:07:34.024Z,1.47
2019-03-12T03:10:07.939Z,1.40
2019-03-12T03:12:39.352Z,1.55
2019-03-12T03:15:13.756Z,1.75
2019-03-12T03:17:45.039Z,1.32
2019-03-12T03:20:16.262Z,1.72
2019-03-12T03:22:47.419Z,2.00
2019-03-12T03:25:18.609Z,2.00
2019-03-12T03:27:49.945Z,2.25
2019-03-12T03:30:25.024Z,2.42
2019-03-12T03:32:56.564Z,3.08
2019-03-12T03:35:28.120Z,2.50
2019-03-12T03:37:59.572Z,2.60
2019-03-12T03:40:30.704Z,2.25
2019-03-12T03:43:02.070Z,2.30
2019-03-12T03:45:33.519Z,2.15
2019-03-12T03:48:04.756Z,2.35
2019-03-12T03:50:35.972Z,2.22
2019-03-12T03:53:07.121Z,2.42
2019-03-12T03:55:38.331Z,2.12
2019-03-12T03:58:09.511Z,2.25
2019-03-12T04:00:41.107Z,2.50
2019-03-12T04:03:12.351Z,2.65
2019-03-12T04:05:43.930Z,2.98
2019-03-12T04:08:15.246Z,2.72
2019-03-12T04:10:46.693Z,2.37
2019-03-12T04:13:18.390Z,2.50
2019-03-12T04:15:49.596Z,2.77
2019-03-12T04:18:20.849Z,3.10
2019-03-12T04:20:52.155Z,3.17
2019-03-12T04:23:23.309Z,2.98
2019-03-12T04:25:54.501Z,3.42
2019-03-12T04:28:25.719Z,4.00
2019-03-12T04:30:56.923Z,3.92
2019-03-12T04:33:51.024Z,4.65
2019-03-12T04:36:22.364Z,3.87
2019-03-12T04:38:53.700Z,4.58
2019-03-12T04:41:24.886Z,4.58
2019-03-12T04:43:56.315Z,6.97
2019-03-12T04:46:27.577Z,5.50
2019-03-12T04:48:58.826Z,5.40
2019-03-12T04:51:30.045Z,7.28
2019-03-12T04:54:01.277Z,9.38
2019-03-12T04:56:32.478Z,8.15
2019-03-12T04:59:03.815Z,9.40
2019-03-12T05:01:35.622Z,11.23
2019-03-12T05:04:06.900Z,10.35
2019-03-12T05:06:38.221Z,7.70
2019-03-12T05:09:09.543Z,5.80
2019-03-12T05:11:40.756Z,5.55
2019-03-12T05:14:25.754Z,4.47
2019-03-12T05:17:03.371Z,3.95
2019-03-12T05:19:35.087Z,3.58
2019-03-12T05:22:06.351Z,4.83
2019-03-12T05:24:37.996Z,3.70
2019-03-12T05:27:09.596Z,3.58
2019-03-12T05:29:41.125Z,4.35
2019-03-12T05:32:12.753Z,4.37
2019-03-12T05:34:44.189Z,8.68
2019-03-12T05:37:16.165Z,9.33
2019-03-12T05:39:47.827Z,9.17
2019-03-12T05:42:19.388Z,9.50
2019-03-12T05:44:50.680Z,7.17
2019-03-12T05:47:22.028Z,8.05
2019-03-12T05:49:53.325Z,7.53
2019-03-12T05:52:24.526Z,8.78
2019-03-12T05:54:55.754Z,9.00
2019-03-12T05:57:27.044Z,9.48
2019-03-12T05:59:58.366Z,9.48
2019-03-12T06:02:29.728Z,9.33
2019-03-12T06:05:00.899Z,8.40
2019-03-12T06:07:32.140Z,8.80
2019-03-12T06:10:04.443Z,7.95
2019-03-12T06:12:35.932Z,5.58
2019-03-12T06:15:09.687Z,5.87
2019-03-12T06:17:41.027Z,5.00
2019-03-12T06:20:14.152Z,5.20
2019-03-12T06:22:45.337Z,5.33
2019-03-12T06:25:16.629Z,6.22
2019-03-12T06:27:48.089Z,6.00
2019-03-12T06:30:20.563Z,6.50
2019-03-12T06:32:59.386Z,6.05
2019-03-12T06:35:34.961Z,5.17
2019-03-12T06:38:08.204Z,5.08
2019-03-12T06:40:50.232Z,6.12
2019-03-12T06:43:23.321Z,7.47
2019-03-12T06:45:56.127Z,7.08
2019-03-12T06:48:40.845Z,6.75
2019-03-12T06:51:15.132Z,6.62
2019-03-12T06:53:50.635Z,6.97
2019-03-12T06:56:26.441Z,6.90
2019-03-12T06:59:11.446Z,7.30
2019-03-12T07:02:02.417Z,8.18
2019-03-12T07:04:35.254Z,8.63
2019-03-12T07:07:11.456Z,8.88
2019-03-12T07:09:52.232Z,11.08
2019-03-12T07:12:36.676Z,10.67
2019-03-12T07:15:20.161Z,11.20
2019-03-12T07:17:53.211Z,9.73
2019-03-12T07:20:44.537Z,9.23
2019-03-12T07:23:17.938Z,10.48
2019-03-12T07:25:53.780Z,12.25
2019-03-12T07:28:29.937Z,12.55
2019-03-12T07:31:03.301Z,13.53
2019-03-12T07:33:45.946Z,10.82
2019-03-12T07:36:26.524Z,9.68
2019-03-12T07:39:08.408Z,9.20
2019-03-12T07:41:41.762Z,10.10
2019-03-12T07:44:17.741Z,9.48
2019-03-12T07:46:50.650Z,8.48
2019-03-12T07:49:29.588Z,8.95
2019-03-12T07:52:11.470Z,10.08
2019-03-12T07:54:48.147Z,11.03
2019-03-12T07:57:21.463Z,10.40
2019-03-12T07:59:57.366Z,9.18
2019-03-12T08:02:50.136Z,8.30
2019-03-12T08:05:23.064Z,4.28
2019-03-12T08:08:11.992Z,3.58
2019-03-12T08:10:44.884Z,4.47
2019-03-12T08:13:17.637Z,5.03
2019-03-12T08:16:00.593Z,5.28
2019-03-12T08:18:49.752Z,5.08
2019-03-12T08:21:38.850Z,4.97
2019-03-12T08:24:23.657Z,5.37
2019-03-12T08:26:56.498Z,6.75
2019-03-12T08:29:35.502Z,5.55
2019-03-12T08:32:15.967Z,5.12
2019-03-12T08:34:54.741Z,4.08
2019-03-12T08:37:27.648Z,3.87
2019-03-12T08:42:54.543Z,5.33
2019-03-12T08:45:27.751Z,3.90
2019-03-12T08:48:00.613Z,3.75
2019-03-12T08:50:39.563Z,4.10
2019-03-12T08:53:18.232Z,4.17
2019-03-12T08:55:51.245Z,4.33
2019-03-12T09:00:59.247Z,4.83
2019-03-12T09:03:32.394Z,4.80
2019-03-12T09:06:08.122Z,3.98
2019-03-12T09:08:53.427Z,3.67
2019-03-12T09:11:26.538Z,5.37
2019-03-12T09:16:41.437Z,3.42
2019-03-12T09:19:14.899Z,3.47
2019-03-12T09:21:47.827Z,3.37
2019-03-12T09:24:20.802Z,2.70
2019-03-12T09:29:48.484Z,2.42
2019-03-12T09:32:21.744Z,3.47
2019-03-12T09:34:57.749Z,3.50
2019-03-12T09:37:31.093Z,3.45
2019-03-12T09:40:07.409Z,4.50
2019-03-12T09:42:40.698Z,3.55
2019-03-12T09:45:16.778Z,5.22
2019-03-12T09:47:49.922Z,3.65
2019-03-12T09:53:13.535Z,3.12
2019-03-12T09:55:46.734Z,3.85
2019-03-12T09:58:22.580Z,3.20
2019-03-12T10:01:13.472Z,3.47
2019-03-12T10:03:49.753Z,2.90
2019-03-12T10:06:28.458Z,2.90
2019-03-12T10:09:13.550Z,2.33
2019-03-12T10:11:55.848Z,2.30
2019-03-12T10:14:41.126Z,2.07
2019-03-12T10:17:17.340Z,1.98
2019-03-12T10:19:50.325Z,1.10
2019-03-12T10:25:01.192Z,1.70
2019-03-12T10:27:34.360Z,2.00
2019-03-12T10:32:57.736Z,1.60
2019-03-12T10:38:41.969Z,1.80
2019-03-12T10:41:17.857Z,1.75
2019-03-12T10:43:49.432Z,2.02
2019-03-12T10:46:22.217Z,2.62
2019-03-12T10:48:53.634Z,2.40
2019-03-12T10:51:24.963Z,2.52
2019-03-12T10:53:57.188Z,2.17
2019-03-12T10:56:28.561Z,2.30
2019-03-12T10:59:00.978Z,1.87
2019-03-12T11:01:32.286Z,1.70
2019-03-12T11:04:03.608Z,1.80
2019-03-12T11:06:35.334Z,1.52
2019-03-12T11:09:06.748Z,1.77
2019-03-12T11:11:39.056Z,1.50
2019-03-12T11:14:13.211Z,1.30
2019-03-12T11:16:44.504Z,1.80
2019-03-12T11:19:16.992Z,1.70
2019-03-12T11:21:48.303Z,1.98
2019-03-12T11:24:19.702Z,3.10
2019-03-12T11:26:51.191Z,2.50
2019-03-12T11:29:22.473Z,2.33
2019-03-12T11:31:54.152Z,2.37
2019-03-12T11:34:41.515Z,2.50
2019-03-12T11:37:15.805Z,3.05
2019-03-12T11:39:50.275Z,2.30
2019-03-12T11:42:21.590Z,2.25
2019-03-12T11:44:52.816Z,2.47
2019-03-12T11:47:24.165Z,2.70
2019-03-12T11:49:56.652Z,3.40
2019-03-12T11:52:28.902Z,2.55
2019-03-12T11:55:01.174Z,1.90
2019-03-12T11:57:32.549Z,2.08
2019-03-12T12:00:05.660Z,4.20
2019-03-12T12:02:37.432Z,2.30
2019-03-12T12:05:09.105Z,1.92
2019-03-12T12:07:40.424Z,2.33
2019-03-12T12:10:15.171Z,1.75
2019-03-12T12:12:46.460Z,2.05
2019-03-12T12:15:17.741Z,1.60
2019-03-12T12:17:49.626Z,2.00
2019-03-12T12:20:29.398Z,1.60
2019-03-12T12:22:54.166Z,2.17
2019-03-12T12:25:26.873Z,1.82
2019-03-12T12:27:58.321Z,2.08
2019-03-12T12:30:29.615Z,2.20
2019-03-12T12:33:00.898Z,2.00
2019-03-12T12:35:32.456Z,1.90
2019-03-12T12:38:03.826Z,2.15
2019-03-12T12:40:35.082Z,2.22
2019-03-12T12:43:06.310Z,2.98
2019-03-12T12:45:39.862Z,2.65
2019-03-12T12:48:11.562Z,2.15
2019-03-12T12:50:43.062Z,2.67
2019-03-12T12:53:14.678Z,2.65
2019-03-12T12:55:46.339Z,2.33
2019-03-12T12:58:18.085Z,2.42
2019-03-12T13:00:49.674Z,2.02
2019-03-12T13:03:21.806Z,2.30
2019-03-12T13:05:55.483Z,2.52
2019-03-12T13:10:57.186Z,2.30
2019-03-12T13:13:29.076Z,2.55
2019-03-12T13:16:00.697Z,2.52
2019-03-12T13:18:32.517Z,2.50
2019-03-12T13:21:04.118Z,2.58
2019-03-12T13:23:37.617Z,2.45
2019-03-12T13:26:09.703Z,2.62
2019-03-12T13:28:41.236Z,2.60
2019-03-12T13:31:12.816Z,1.90
2019-03-12T13:33:44.114Z,2.02
2019-03-12T13:36:16.380Z,2.27
2019-03-12T13:38:48.477Z,2.65
2019-03-12T13:41:23.503Z,3.47
2019-03-12T13:43:55.092Z,2.55
2019-03-12T13:46:26.420Z,2.83
2019-03-12T13:48:57.691Z,3.00
2019-03-12T13:51:30.556Z,3.25
2019-03-12T13:54:01.847Z,2.90
2019-03-12T13:56:33.089Z,2.98
2019-03-12T13:59:04.334Z,2.25
2019-03-12T14:01:35.570Z,1.90
2019-03-12T14:04:10.678Z,2.27
2019-03-12T14:06:40.909Z,2.50
2019-03-12T14:09:12.559Z,2.42
2019-03-12T14:11:44.406Z,3.02
2019-03-12T14:14:16.158Z,3.02
2019-03-12T14:16:48.385Z,3.47
2019-03-12T14:19:20.004Z,3.35
2019-03-12T14:21:51.635Z,2.75
2019-03-12T14:24:23.416Z,2.80
2019-03-12T14:26:55.023Z,7.78
2019-03-12T14:29:27.124Z,3.22
2019-03-12T14:31:58.316Z,3.12
2019-03-12T14:34:29.521Z,4.33
2019-03-12T14:37:00.855Z,5.30
2019-03-12T14:39:32.476Z,6.70
2019-03-12T14:42:03.756Z,6.20
2019-03-12T14:44:35.269Z,4.05
2019-03-12T14:47:06.626Z,3.67
2019-03-12T14:49:37.913Z,4.15
2019-03-12T14:52:10.900Z,6.55
2019-03-12T14:54:42.455Z,3.77
2019-03-12T14:57:13.825Z,3.90
2019-03-12T14:59:45.113Z,4.17
2019-03-12T15:02:16.471Z,3.95
2019-03-12T15:04:47.877Z,3.98
2019-03-12T15:07:19.066Z,3.75
2019-03-12T15:09:50.440Z,3.55
2019-03-12T15:12:21.697Z,3.98
2019-03-12T15:14:53.249Z,3.42
2019-03-12T15:17:24.602Z,3.60
2019-03-12T15:19:55.906Z,4.03
2019-03-12T15:22:27.254Z,3.50
2019-03-12T15:24:58.669Z,3.10
2019-03-12T15:27:30.876Z,3.40
2019-03-12T15:30:03.237Z,3.20
2019-03-12T15:32:36.043Z,3.02
2019-03-12T15:35:07.319Z,3.37
2019-03-12T15:37:38.554Z,3.27
2019-03-12T15:40:11.782Z,3.70
2019-03-12T15:42:43.165Z,3.87
2019-03-12T15:45:16.304Z,3.90
2019-03-12T15:47:47.729Z,3.40
2019-03-12T15:50:19.461Z,3.75
2019-03-12T15:52:50.752Z,4.67
2019-03-12T15:55:22.022Z,5.53
2019-03-12T15:57:53.259Z,5.20
2019-03-12T16:00:24.594Z,5.58
2019-03-12T16:02:55.782Z,5.60
2019-03-12T16:05:27.078Z,5.40
2019-03-12T16:07:58.359Z,5.25
2019-03-12T16:10:29.642Z,5.28
2019-03-12T16:13:00.889Z,6.08
2019-03-12T16:15:32.294Z,6.17
2019-03-12T16:18:03.562Z,5.50
2019-03-12T16:20:35.125Z,4.78
2019-03-12T16:23:09.777Z,5.50
2019-03-12T16:25:41.028Z,6.20
2019-03-12T16:28:12.449Z,6.28
2019-03-12T16:30:43.739Z,6.60
2019-03-12T16:33:15.137Z,9.45
2019-03-12T16:35:46.604Z,9.23
2019-03-12T16:38:17.894Z,8.68
2019-03-12T16:40:49.114Z,10.60
2019-03-12T16:43:22.191Z,10.23
2019-03-12T16:45:53.807Z,9.85
2019-03-12T16:48:25.103Z,10.03
2019-03-12T16:50:56.483Z,10.58
2019-03-12T16:53:27.925Z,10.68
2019-03-12T16:55:59.297Z,11.43
2019-03-12T16:58:30.661Z,10.53
2019-03-12T17:01:02.297Z,15.20
2019-03-12T17:03:33.768Z,26.90
2019-03-12T17:06:06.394Z,23.73
2019-03-12T17:08:38.237Z,21.62
2019-03-12T17:11:09.803Z,21.15
2019-03-12T17:13:41.245Z,20.62
2019-03-12T17:16:12.667Z,19.57
2019-03-12T17:18:44.089Z,17.37
2019-03-12T17:21:15.553Z,20.20
2019-03-12T17:23:46.807Z,18.25
2019-03-12T17:26:18.187Z,20.85
2019-03-12T17:28:49.936Z,22.20
2019-03-12T17:31:21.396Z,20.27
2019-03-12T17:33:52.894Z,20.23
2019-03-12T17:36:24.297Z,19.07
2019-03-12T17:38:55.717Z,18.12
2019-03-12T17:41:27.286Z,16.55
2019-03-12T17:43:58.679Z,16.50
2019-03-12T17:46:30.088Z,15.65
2019-03-12T17:49:01.456Z,15.60
2019-03-12T17:51:32.808Z,15.80
2019-03-12T17:54:04.801Z,15.23
2019-03-12T17:56:35.993Z,16.02
2019-03-12T17:59:07.225Z,16.15
2019-03-12T18:01:39.630Z,20.17
2019-03-12T18:04:11.560Z,19.87
2019-03-12T18:06:43.500Z,20.82
2019-03-12T18:09:15.079Z,22.90
2019-03-12T18:11:46.968Z,21.17
2019-03-12T18:14:18.406Z,21.17
2019-03-12T18:16:49.822Z,23.52
2019-03-12T18:19:21.174Z,23.65
2019-03-12T18:21:52.501Z,21.60
2019-03-12T18:24:24.122Z,22.42
2019-03-12T18:26:55.561Z,21.80
2019-03-12T18:29:27.367Z,22.98
2019-03-12T18:31:58.706Z,24.85
2019-03-12T18:34:30.441Z,23.50
2019-03-12T18:37:02.165Z,24.92
2019-03-12T18:39:34.279Z,22.95
2019-03-12T18:42:05.935Z,25.15
2019-03-12T18:44:37.692Z,21.75
2019-03-12T18:47:09.333Z,18.82
2019-03-12T18:49:41.007Z,16.73
2019-03-12T18:52:12.729Z,14.35
2019-03-12T18:54:44.104Z,16.20
2019-03-12T18:57:15.454Z,13.32
2019-03-12T18:59:46.777Z,13.22
2019-03-12T19:02:18.148Z,13.70
2019-03-12T19:04:49.431Z,13.50
2019-03-12T19:07:20.971Z,12.58
2019-03-12T19:09:52.462Z,12.18
2019-03-12T19:12:23.717Z,11.88
2019-03-12T19:14:55.032Z,11.12
2019-03-12T19:17:28.048Z,9.93
2019-03-12T19:19:59.570Z,9.95
2019-03-12T19:22:30.777Z,10.30
2019-03-12T19:25:02.297Z,10.20
2019-03-12T19:27:33.774Z,9.38
2019-03-12T19:30:08.197Z,9.90
2019-03-12T19:32:41.409Z,8.98
2019-03-12T19:37:44.668Z,8.95
2019-03-12T19:40:21.390Z,9.85
2019-03-12T19:42:52.738Z,9.03
2019-03-12T19:45:24.281Z,10.00
2019-03-12T19:47:55.943Z,9.10
2019-03-12T19:50:27.605Z,9.43
2019-03-12T19:52:59.252Z,8.68
2019-03-12T19:55:36.485Z,9.15
2019-03-12T19:58:07.872Z,9.08
2019-03-12T20:00:39.123Z,8.90
2019-03-12T20:03:15.129Z,9.13
2019-03-12T20:05:43.679Z,9.00
2019-03-12T20:08:15.217Z,9.25
2019-03-12T20:11:07.768Z,10.32
2019-03-12T20:13:42.657Z,8.70
2019-03-12T20:16:35.201Z,7.95
2019-03-12T20:19:26.780Z,7.40
2019-03-12T20:22:07.057Z,6.67
2019-03-12T20:25:14.748Z,5.60
2019-03-12T20:28:24.198Z,5.35
2019-03-12T20:31:29.200Z,5.17
2019-03-12T20:34:37.146Z,5.30
2019-03-12T20:37:17.482Z,5.70
2019-03-12T20:40:06.849Z,6.33
2019-03-12T20:43:10.571Z,5.65
2019-03-12T20:46:01.694Z,6.15
2019-03-12T20:48:51.751Z,6.17
2019-03-12T20:51:51.946Z,6.12
2019-03-12T20:54:49.369Z,7.60
2019-03-12T20:57:46.727Z,6.50
2019-03-12T21:00:30.218Z,6.65
2019-03-12T21:03:25.923Z,7.62
2019-03-12T21:06:15.283Z,8.70
2019-03-12T21:09:25.076Z,9.78
2019-03-12T21:12:35.985Z,12.33
2019-03-12T21:15:34.767Z,12.90
2019-03-12T21:18:28.104Z,13.10
2019-03-12T21:21:20.651Z,12.20
2019-03-12T21:24:04.237Z,12.58
2019-03-12T21:26:56.846Z,14.00
2019-03-12T21:29:46.071Z,14.58
2019-03-12T21:32:18.612Z,13.18
2019-03-12T21:34:50.018Z,12.00
2019-03-12T21:37:22.367Z,11.50
2019-03-12T21:39:56.077Z,9.35
2019-03-12T21:42:27.354Z,10.43
2019-03-12T21:44:58.588Z,8.60
2019-03-12T21:47:30.344Z,8.93
2019-03-12T21:50:01.864Z,8.35
2019-03-12T21:52:33.614Z,9.28
2019-03-12T21:55:13.656Z,9.18
2019-03-12T21:57:45.064Z,9.80
2019-03-12T22:00:19.249Z,8.73
2019-03-12T22:02:51.259Z,9.78
2019-03-12T22:05:22.486Z,10.40
2019-03-12T22:07:53.786Z,9.90
2019-03-12T22:10:25.105Z,11.15
2019-03-12T22:12:56.386Z,10.90
2019-03-12T22:15:29.767Z,13.03
2019-03-12T22:18:00.729Z,12.82
2019-03-12T22:20:32.211Z,13.35
2019-03-12T22:23:08.289Z,13.93
2019-03-12T22:25:40.930Z,13.40
2019-03-12T22:28:12.690Z,12.93
2019-03-12T22:30:44.065Z,13.00
2019-03-12T22:33:15.404Z,14.05
2019-03-12T22:35:46.731Z,14.03
2019-03-12T22:38:18.005Z,12.25
2019-03-12T22:40:49.331Z,12.13
2019-03-12T22:43:22.266Z,11.22
2019-03-12T22:48:24.120Z,11.00
2019-03-12T22:50:56.707Z,10.48
2019-03-12T22:53:28.051Z,11.57
2019-03-12T22:55:59.397Z,12.10
2019-03-12T22:58:30.648Z,12.58
2019-03-12T23:01:19.798Z,11.80
2019-03-12T23:04:09.481Z,13.13
2019-03-12T23:06:59.153Z,12.58
2019-03-12T23:09:45.135Z,14.18
2019-03-12T23:14:50.109Z,13.72
2019-03-12T23:17:22.573Z,13.70
2019-03-12T23:19:54.028Z,12.65
2019-03-12T23:22:25.390Z,11.08
2019-03-12T23:24:56.785Z,10.25
2019-03-12T23:27:28.068Z,9.85
2019-03-12T23:29:59.338Z,9.60
2019-03-12T23:32:30.623Z,8.98
2019-03-12T23:35:01.936Z,9.73
2019-03-12T23:37:33.040Z,9.88
2019-03-12T23:40:06.354Z,7.70
2019-03-12T23:42:38.010Z,8.08
2019-03-12T23:45:11.023Z,9.40
2019-03-12T23:47:42.237Z,8.15
2019-03-12T23:50:15.349Z,8.15
2019-03-12T23:55:18.852Z,7.35
2019-03-12T23:57:50.700Z,6.95
